createdAt,value
2023-03-05T00:01:57.944Z,101904.00
2023-03-05T00:04:26.140Z,101890.00
2023-03-05T00:06:53.311Z,101884.00
2023-03-05T00:09:20.533Z,101891.00
2023-03-05T00:11:47.941Z,101870.00
2023-03-05T00:14:15.099Z,101883.00
2023-03-05T00:16:42.354Z,101884.00
2023-03-05T00:19:11.087Z,101885.00
2023-03-05T00:21:43.112Z,101893.00
2023-03-05T00:24:18.832Z,101884.00
2023-03-05T00:26:47.152Z,101870.00
2023-03-05T00:29:22.024Z,101884.00
2023-03-05T00:31:49.340Z,101881.00
2023-03-05T00:34:19.306Z,101861.00
2023-03-05T00:36:51.541Z,101877.00
2023-03-05T00:39:21.407Z,101886.00
2023-03-05T00:41:50.063Z,101873.00
2023-03-05T00:44:17.349Z,101863.00
2023-03-05T00:46:44.787Z,101874.00
2023-03-05T00:49:14.738Z,101869.00
2023-03-05T00:51:42.112Z,101873.00
2023-03-05T00:54:09.595Z,101853.00
2023-03-05T00:56:36.836Z,101850.00
2023-03-05T00:59:04.114Z,101870.00
2023-03-05T01:01:31.579Z,101863.00
2023-03-05T01:04:00.239Z,101860.00
2023-03-05T01:06:31.634Z,101854.00
2023-03-05T01:08:59.692Z,101837.00
2023-03-05T01:11:26.895Z,101844.00
2023-03-05T01:13:54.105Z,101835.00
2023-03-05T01:16:23.604Z,101834.00
2023-03-05T01:18:50.964Z,101823.00
2023-03-05T01:21:18.279Z,101823.00
2023-03-05T01:23:45.518Z,101827.00
2023-03-05T01:26:13.397Z,101813.00
2023-03-05T01:28:40.963Z,101830.00
2023-03-05T01:31:11.090Z,101829.00
2023-03-05T01:33:39.072Z,101823.00
2023-03-05T01:36:15.051Z,101823.00
2023-03-05T01:38:47.992Z,101816.00
2023-03-05T01:41:17.870Z,101811.00
2023-03-05T01:43:47.681Z,101811.00
2023-03-05T01:46:36.677Z,101810.00
2023-03-05T01:49:16.270Z,101805.00
2023-03-05T01:51:59.060Z,101803.00
2023-03-05T01:54:33.904Z,101792.00
2023-03-05T01:57:13.324Z,101790.00
2023-03-05T01:59:45.978Z,101796.00
2023-03-05T02:02:14.287Z,101788.00
2023-03-05T02:05:07.094Z,101791.00
2023-03-05T02:07:37.437Z,101783.00
2023-03-05T02:10:28.627Z,101771.00
2023-03-05T02:13:02.142Z,101774.00
2023-03-05T02:15:30.539Z,101768.00
2023-03-05T02:17:57.817Z,101773.00
2023-03-05T02:20:30.297Z,101764.00
2023-03-05T02:22:57.979Z,101765.00
2023-03-05T02:25:29.283Z,101759.00
2023-03-05T02:28:06.287Z,101771.00
2023-03-05T02:30:33.876Z,101762.00
2023-03-05T02:33:01.773Z,101748.00
2023-03-05T02:35:28.949Z,101747.00
2023-03-05T02:37:56.198Z,101743.00
2023-03-05T02:40:23.775Z,101748.00
2023-03-05T02:42:51.426Z,101747.00
2023-03-05T02:45:21.128Z,101739.00
2023-03-05T02:47:48.426Z,101734.00
2023-03-05T02:50:16.045Z,101732.00
2023-03-05T02:52:43.318Z,101733.00
2023-03-05T02:55:11.409Z,101727.00
2023-03-05T02:57:38.870Z,101726.00
2023-03-05T03:00:07.433Z,101733.00
2023-03-05T03:02:34.757Z,101724.00
2023-03-05T03:05:02.437Z,101715.00
2023-03-05T03:07:30.242Z,101718.00
2023-03-05T03:09:57.618Z,101704.00
2023-03-05T03:12:24.958Z,101712.00
2023-03-05T03:14:52.279Z,101696.00
2023-03-05T03:17:20.275Z,101697.00
2023-03-05T03:19:47.989Z,101691.00
2023-03-05T03:22:18.251Z,101702.00
2023-03-05T03:24:45.423Z,101696.00
2023-03-05T03:27:12.740Z,101693.00
2023-03-05T03:29:39.999Z,101690.00
2023-03-05T03:32:08.805Z,101687.00
2023-03-05T03:34:36.248Z,101685.00
2023-03-05T03:37:03.470Z,101678.00
2023-03-05T03:39:30.683Z,101679.00
2023-03-05T03:41:58.009Z,101681.00
2023-03-05T03:44:25.548Z,101668.00
2023-03-05T03:46:54.359Z,101674.00
2023-03-05T03:49:26.442Z,101668.00
2023-03-05T03:51:55.690Z,101665.00
2023-03-05T03:54:23.500Z,101658.00
2023-03-05T03:56:51.404Z,101665.00
2023-03-05T03:59:19.290Z,101653.00
2023-03-05T04:01:46.809Z,101663.00
2023-03-05T04:04:15.080Z,101658.00
2023-03-05T04:06:43.325Z,101646.00
2023-03-05T04:09:10.615Z,101635.00
2023-03-05T04:11:38.436Z,101631.00
2023-03-05T04:14:06.251Z,101617.00
2023-03-05T04:16:34.016Z,101622.00
2023-03-05T04:19:01.510Z,101628.00
2023-03-05T04:21:29.690Z,101615.00
2023-03-05T04:23:57.083Z,101618.00
2023-03-05T04:26:24.321Z,101614.00
2023-03-05T04:28:51.917Z,101612.00
2023-03-05T04:31:20.682Z,101615.00
2023-03-05T04:33:48.060Z,101614.00
2023-03-05T04:36:15.463Z,101605.00
2023-03-05T04:38:42.875Z,101597.00
2023-03-05T04:41:10.280Z,101599.00
2023-03-05T04:43:39.525Z,101596.00
2023-03-05T04:46:06.776Z,101600.00
2023-03-05T04:48:34.079Z,101595.00
2023-03-05T04:51:01.331Z,101602.00
2023-03-05T04:53:28.713Z,101612.00
2023-03-05T04:55:57.090Z,101602.00
2023-03-05T04:58:25.148Z,101602.00
2023-03-05T05:00:52.468Z,101602.00
2023-03-05T05:03:19.862Z,101592.00
2023-03-05T05:05:54.731Z,101595.00
2023-03-05T05:08:22.549Z,101592.00
2023-03-05T05:11:06.173Z,101601.00
2023-03-05T05:13:34.458Z,101595.00
2023-03-05T05:16:02.002Z,101595.00
2023-03-05T05:18:29.186Z,101592.00
2023-03-05T05:20:56.433Z,101590.00
2023-03-05T05:23:23.948Z,101591.00
2023-03-05T05:26:02.868Z,101583.00
2023-03-05T05:28:31.052Z,101595.00
2023-03-05T05:30:58.673Z,101581.00
2023-03-05T05:33:26.789Z,101581.00
2023-03-05T05:35:54.697Z,101576.00
2023-03-05T05:38:22.278Z,101586.00
2023-03-05T05:40:49.457Z,101577.00
2023-03-05T05:43:16.707Z,101575.00
2023-03-05T05:45:44.112Z,101569.00
2023-03-05T05:48:11.446Z,101574.00
2023-03-05T05:50:39.734Z,101577.00
2023-03-05T05:53:06.993Z,101567.00
2023-03-05T05:55:34.168Z,101577.00
2023-03-05T05:58:01.386Z,101573.00
2023-03-05T06:00:28.777Z,101573.00
2023-03-05T06:02:56.043Z,101562.00
2023-03-05T06:05:23.594Z,101570.00
2023-03-05T06:07:50.855Z,101552.00
2023-03-05T06:10:18.365Z,101552.00
2023-03-05T06:12:45.904Z,101542.00
2023-03-05T06:15:15.836Z,101566.00
2023-03-05T06:17:45.989Z,101559.00
2023-03-05T06:20:17.046Z,101558.00
2023-03-05T06:22:44.645Z,101557.00
2023-03-05T06:25:13.708Z,101558.00
2023-03-05T06:27:44.679Z,101546.00
2023-03-05T06:30:20.530Z,101551.00
2023-03-05T06:32:48.835Z,101544.00
2023-03-05T06:35:25.118Z,101550.00
2023-03-05T06:37:53.093Z,101546.00
2023-03-05T06:40:32.343Z,101549.00
2023-03-05T06:43:03.447Z,101543.00
2023-03-05T06:45:43.040Z,101545.00
2023-03-05T06:48:16.220Z,101540.00
2023-03-05T06:50:44.557Z,101540.00
2023-03-05T06:53:12.482Z,101536.00
2023-03-05T06:55:42.747Z,101533.00
2023-03-05T06:58:12.319Z,101531.00
2023-03-05T07:00:42.957Z,101537.00
2023-03-05T07:03:11.184Z,101541.00
2023-03-05T07:05:43.139Z,101522.00
2023-03-05T07:08:11.178Z,101542.00
2023-03-05T07:10:44.114Z,101541.00
2023-03-05T07:13:12.096Z,101534.00
2023-03-05T07:15:44.761Z,101542.00
2023-03-05T07:18:12.878Z,101532.00
2023-03-05T07:20:40.410Z,101535.00
2023-03-05T07:23:08.241Z,101531.00
2023-03-05T07:25:41.238Z,101529.00
2023-03-05T07:28:15.950Z,101532.00
2023-03-05T07:30:48.850Z,101528.00
2023-03-05T07:33:22.644Z,101526.00
2023-03-05T07:35:53.397Z,101532.00
2023-03-05T07:38:21.511Z,101525.00
2023-03-05T07:40:53.909Z,101529.00
2023-03-05T07:43:25.755Z,101529.00
2023-03-05T07:45:53.215Z,101528.00
2023-03-05T07:48:23.682Z,101527.00
2023-03-05T07:50:54.201Z,101532.00
2023-03-05T07:53:24.942Z,101531.00
2023-03-05T07:55:55.277Z,101533.00
2023-03-05T07:58:27.547Z,101521.00
2023-03-05T08:00:56.001Z,101514.00
2023-03-05T08:03:27.741Z,101523.00
2023-03-05T08:06:10.372Z,101517.00
2023-03-05T08:08:47.595Z,101530.00
2023-03-05T08:11:16.688Z,101523.00
2023-03-05T08:13:46.154Z,101521.00
2023-03-05T08:16:23.040Z,101512.00
2023-03-05T08:18:51.317Z,101503.00
2023-03-05T08:21:28.342Z,101506.00
2023-03-05T08:23:58.880Z,101507.00
2023-03-05T08:26:37.136Z,101503.00
2023-03-05T08:29:07.841Z,101495.00
2023-03-05T08:31:42.330Z,101508.00
2023-03-05T08:34:15.308Z,101497.00
2023-03-05T08:36:46.718Z,101472.00
2023-03-05T08:39:20.851Z,101488.00
2023-03-05T08:41:51.959Z,101489.00
2023-03-05T08:44:22.891Z,101494.00
2023-03-05T08:46:56.832Z,101491.00
2023-03-05T08:49:26.507Z,101478.00
2023-03-05T08:51:54.575Z,101482.00
2023-03-05T08:54:22.796Z,101484.00
2023-03-05T08:56:52.530Z,101477.00
2023-03-05T08:59:20.466Z,101456.00
2023-03-05T09:01:48.638Z,101471.00
2023-03-05T09:04:19.130Z,101458.00
2023-03-05T09:06:49.897Z,101447.00
2023-03-05T09:09:21.548Z,101449.00
2023-03-05T09:11:53.257Z,101454.00
2023-03-05T09:14:21.400Z,101452.00
2023-03-05T09:16:51.204Z,101461.00
2023-03-05T09:19:20.053Z,101450.00
2023-03-05T09:21:51.332Z,101443.00
2023-03-05T09:24:20.341Z,101439.00
2023-03-05T09:26:48.457Z,101444.00
2023-03-05T09:29:17.679Z,101424.00
2023-03-05T09:31:47.226Z,101432.00
2023-03-05T09:34:16.507Z,101426.00
2023-03-05T09:36:45.172Z,101427.00
2023-03-05T09:39:13.655Z,101442.00
2023-03-05T09:42:04.260Z,101432.00
2023-03-05T09:44:43.077Z,101432.00
2023-03-05T09:47:32.541Z,101420.00
2023-03-05T09:50:10.644Z,101418.00
2023-03-05T09:52:47.218Z,101411.00
2023-03-05T09:55:32.263Z,101408.00
2023-03-05T09:58:18.285Z,101404.00
2023-03-05T10:01:02.471Z,101395.00
2023-03-05T10:04:01.697Z,101391.00
2023-03-05T10:07:11.898Z,101392.00
2023-03-05T10:10:07.910Z,101395.00
2023-03-05T10:12:50.543Z,101398.00
2023-03-05T10:15:51.737Z,101393.00
2023-03-05T10:19:07.267Z,101395.00
2023-03-05T10:22:26.980Z,101400.00
2023-03-05T10:25:24.059Z,101398.00
2023-03-05T10:28:20.296Z,101389.00
2023-03-05T10:31:12.914Z,101386.00
2023-03-05T10:34:05.063Z,101382.00
2023-03-05T10:36:53.980Z,101373.00
2023-03-05T10:39:51.998Z,101375.00
2023-03-05T10:42:36.884Z,101374.00
2023-03-05T10:45:23.285Z,101365.00
2023-03-05T10:48:02.554Z,101377.00
2023-03-05T10:50:44.905Z,101364.00
2023-03-05T10:54:09.164Z,101370.00
2023-03-05T10:56:38.353Z,101362.00
2023-03-05T10:59:06.402Z,101360.00
2023-03-05T11:01:38.068Z,101362.00
2023-03-05T11:04:26.419Z,101356.00
2023-03-05T11:06:55.713Z,101348.00
2023-03-05T11:09:32.700Z,101348.00
2023-03-05T11:12:20.387Z,101327.00
2023-03-05T11:15:26.240Z,101336.00
2023-03-05T11:18:36.488Z,101338.00
2023-03-05T11:21:21.599Z,101333.00
2023-03-05T11:24:20.390Z,101326.00
2023-03-05T11:26:53.824Z,101316.00
2023-03-05T11:29:33.942Z,101327.00
2023-03-05T11:32:24.686Z,101324.00
2023-03-05T11:34:57.129Z,101312.00
2023-03-05T11:37:32.934Z,101325.00
2023-03-05T11:40:30.659Z,101329.00
2023-03-05T11:43:04.218Z,101321.00
2023-03-05T11:45:35.438Z,101320.00
2023-03-05T11:48:29.381Z,101322.00
2023-03-05T11:51:02.724Z,101325.00
2023-03-05T11:53:39.309Z,101321.00
2023-03-05T11:56:39.214Z,101311.00
2023-03-05T11:59:15.837Z,101313.00
2023-03-05T12:01:56.200Z,101311.00
2023-03-05T12:04:26.643Z,101296.00
2023-03-05T12:07:02.511Z,101294.00
2023-03-05T12:09:52.877Z,101292.00
2023-03-05T12:13:10.456Z,101271.00
2023-03-05T12:16:26.409Z,101262.00
2023-03-05T12:19:14.302Z,101252.00
2023-03-05T12:21:45.728Z,101246.00
2023-03-05T12:24:27.948Z,101234.00
2023-03-05T12:27:04.915Z,101231.00
2023-03-05T12:29:50.893Z,101221.00
2023-03-05T12:32:34.701Z,101216.00
2023-03-05T12:35:23.204Z,101214.00
2023-03-05T12:37:51.379Z,101218.00
2023-03-05T12:40:24.074Z,101208.00
2023-03-05T12:43:02.114Z,101208.00
2023-03-05T12:45:37.054Z,101200.00
2023-03-05T12:48:25.123Z,101195.00
2023-03-05T12:50:59.979Z,101183.00
2023-03-05T12:53:27.744Z,101192.00
2023-03-05T12:56:12.751Z,101189.00
2023-03-05T12:58:54.207Z,101181.00
2023-03-05T13:01:46.920Z,101179.00
2023-03-05T13:04:25.945Z,101173.00
2023-03-05T13:07:14.374Z,101176.00
2023-03-05T13:09:55.135Z,101171.00
2023-03-05T13:12:30.848Z,101169.00
2023-03-05T13:15:07.980Z,101165.00
2023-03-05T13:17:57.643Z,101161.00
2023-03-05T13:20:41.261Z,101160.00
2023-03-05T13:23:24.789Z,101152.00
2023-03-05T13:26:02.928Z,101151.00
2023-03-05T13:28:32.876Z,101148.00
2023-03-05T13:31:12.938Z,101146.00
2023-03-05T13:33:42.653Z,101135.00
2023-03-05T13:36:17.290Z,101143.00
2023-03-05T13:38:48.065Z,101127.00
2023-03-05T13:41:15.878Z,101127.00
2023-03-05T13:44:03.685Z,101114.00
2023-03-05T13:46:42.427Z,101115.00
2023-03-05T13:49:26.975Z,101101.00
2023-03-05T13:51:58.306Z,101105.00
2023-03-05T13:54:28.846Z,101109.00
2023-03-05T13:57:08.294Z,101101.00
2023-03-05T13:59:39.867Z,101095.00
2023-03-05T14:02:21.490Z,101093.00
2023-03-05T14:04:50.392Z,101088.00
2023-03-05T14:07:41.556Z,101083.00
2023-03-05T14:10:39.534Z,101081.00
2023-03-05T14:13:17.918Z,101080.00
2023-03-05T14:16:10.093Z,101081.00
2023-03-05T14:18:39.542Z,101077.00
2023-03-05T14:21:15.581Z,101067.00
2023-03-05T14:23:47.460Z,101080.00
2023-03-05T14:26:38.371Z,101074.00
2023-03-05T14:29:11.970Z,101059.00
2023-03-05T14:32:03.580Z,101058.00
2023-03-05T14:34:40.453Z,101056.00
2023-03-05T14:37:27.677Z,101057.00
2023-03-05T14:40:06.108Z,101052.00
2023-03-05T14:43:02.395Z,101049.00
2023-03-05T14:45:40.386Z,101045.00
2023-03-05T14:48:09.336Z,101034.00
2023-03-05T14:50:47.110Z,101038.00
2023-03-05T14:53:20.849Z,101030.00
2023-03-05T14:56:02.364Z,101033.00
2023-03-05T14:58:35.428Z,101022.00
2023-03-05T15:01:15.316Z,101010.00
2023-03-05T15:03:46.705Z,101017.00
2023-03-05T15:06:41.629Z,101020.00
2023-03-05T15:09:22.542Z,101011.00
2023-03-05T15:11:54.459Z,101003.00
2023-03-05T15:14:28.441Z,101010.00
2023-03-05T15:16:56.969Z,101007.00
2023-03-05T15:19:29.310Z,101017.00
2023-03-05T15:21:58.593Z,100993.00
2023-03-05T15:24:30.541Z,101006.00
2023-03-05T15:26:58.991Z,101000.00
2023-03-05T15:29:32.296Z,101000.00
2023-03-05T15:32:02.259Z,100981.00
2023-03-05T15:34:33.515Z,100985.00
2023-03-05T15:37:03.694Z,100987.00
2023-03-05T15:39:31.653Z,100985.00
2023-03-05T15:42:04.863Z,100969.00
2023-03-05T15:44:34.409Z,100971.00
2023-03-05T15:47:02.315Z,100968.00
2023-03-05T15:49:30.806Z,100968.00
2023-03-05T15:52:01.807Z,100970.00
2023-03-05T15:54:33.216Z,100962.00
2023-03-05T15:57:01.569Z,100965.00
2023-03-05T15:59:29.738Z,100960.00
2023-03-05T16:02:00.641Z,100945.00
2023-03-05T16:04:31.756Z,100943.00
2023-03-05T16:07:04.810Z,100944.00
2023-03-05T16:09:44.485Z,100936.00
2023-03-05T16:12:24.746Z,100933.00
2023-03-05T16:15:05.734Z,100930.00
2023-03-05T16:17:38.438Z,100912.00
2023-03-05T16:20:07.719Z,100917.00
2023-03-05T16:22:35.557Z,100917.00
2023-03-05T16:25:13.116Z,100919.00
2023-03-05T16:27:41.404Z,100913.00
2023-03-05T16:30:15.897Z,100915.00
2023-03-05T16:32:44.613Z,100918.00
2023-03-05T16:35:12.898Z,100909.00
2023-03-05T16:37:45.032Z,100919.00
2023-03-05T16:40:23.091Z,100903.00
2023-03-05T16:43:10.968Z,100901.00
2023-03-05T16:45:39.044Z,100893.00
2023-03-05T16:48:13.265Z,100915.00
2023-03-05T16:50:44.483Z,100906.00
2023-03-05T16:53:17.533Z,100895.00
2023-03-05T16:55:45.295Z,100907.00
2023-03-05T16:58:12.795Z,100896.00
2023-03-05T17:00:40.547Z,100899.00
2023-03-05T17:03:07.885Z,100900.00
2023-03-05T17:05:38.844Z,100898.00
2023-03-05T17:08:09.652Z,100895.00
2023-03-05T17:10:39.958Z,100888.00
2023-03-05T17:13:12.418Z,100885.00
2023-03-05T17:15:40.581Z,100894.00
2023-03-05T17:18:08.985Z,100874.00
2023-03-05T17:20:44.170Z,100887.00
2023-03-05T17:23:12.453Z,100884.00
2023-03-05T17:25:43.652Z,100889.00
2023-03-05T17:28:13.150Z,100879.00
2023-03-05T17:30:41.640Z,100872.00
2023-03-05T17:33:11.669Z,100876.00
2023-03-05T17:35:40.340Z,100891.00
2023-03-05T17:38:11.615Z,100896.00
2023-03-05T17:40:40.688Z,100895.00
2023-03-05T17:43:12.307Z,100892.00
2023-03-05T17:45:40.161Z,100877.00
2023-03-05T17:48:10.963Z,100893.00
2023-03-05T17:50:39.666Z,100874.00
2023-03-05T17:53:10.695Z,100883.00
2023-03-05T17:55:39.434Z,100867.00
2023-03-05T17:58:10.480Z,100873.00
2023-03-05T18:00:38.556Z,100888.00
2023-03-05T18:03:07.001Z,100873.00
2023-03-05T18:05:34.740Z,100886.00
2023-03-05T18:08:04.115Z,100878.00
2023-03-05T18:10:32.601Z,100884.00
2023-03-05T18:13:01.234Z,100872.00
2023-03-05T18:15:39.627Z,100877.00
2023-03-05T18:18:07.824Z,100880.00
2023-03-05T18:20:37.981Z,100884.00
2023-03-05T18:23:07.105Z,100884.00
2023-03-05T18:25:38.654Z,100880.00
2023-03-05T18:28:14.032Z,100876.00
2023-03-05T18:30:48.180Z,100866.00
2023-03-05T18:33:27.849Z,100867.00
2023-03-05T18:35:59.634Z,100873.00
2023-03-05T18:38:30.455Z,100864.00
2023-03-05T18:41:03.557Z,100865.00
2023-03-05T18:43:31.975Z,100871.00
2023-03-05T18:45:59.811Z,100860.00
2023-03-05T18:48:27.825Z,100861.00
2023-03-05T18:50:58.871Z,100863.00
2023-03-05T18:53:26.891Z,100862.00
2023-03-05T18:55:55.098Z,100855.00
2023-03-05T18:58:23.103Z,100850.00
2023-03-05T19:00:57.449Z,100846.00
2023-03-05T19:03:25.376Z,100844.00
2023-03-05T19:05:56.593Z,100844.00
2023-03-05T19:08:24.442Z,100848.00
2023-03-05T19:10:53.181Z,100848.00
2023-03-05T19:13:36.271Z,100844.00
2023-03-05T19:16:18.051Z,100851.00
2023-03-05T19:19:14.171Z,100836.00
2023-03-05T19:21:53.830Z,100837.00
2023-03-05T19:24:27.691Z,100844.00
2023-03-05T19:26:57.226Z,100845.00
2023-03-05T19:29:25.919Z,100847.00
2023-03-05T19:31:54.201Z,100839.00
2023-03-05T19:34:21.810Z,100818.00
2023-03-05T19:36:49.326Z,100819.00
2023-03-05T19:39:16.647Z,100822.00
2023-03-05T19:41:46.970Z,100806.00
2023-03-05T19:44:14.533Z,100824.00
2023-03-05T19:46:43.664Z,100824.00
2023-03-05T19:49:12.823Z,100816.00
2023-03-05T19:51:44.191Z,100813.00
2023-03-05T19:54:13.554Z,100814.00
2023-03-05T19:56:43.033Z,100813.00
2023-03-05T19:59:11.164Z,100804.00
2023-03-05T20:01:38.771Z,100802.00
2023-03-05T20:04:06.942Z,100804.00
2023-03-05T20:06:34.896Z,100801.00
2023-03-05T20:09:02.406Z,100783.00
2023-03-05T20:11:29.723Z,100785.00
2023-03-05T20:13:57.788Z,100789.00
2023-03-05T20:16:32.689Z,100792.00
2023-03-05T20:19:00.389Z,100782.00
2023-03-05T20:21:35.092Z,100790.00
2023-03-05T20:24:11.613Z,100780.00
2023-03-05T20:26:40.428Z,100780.00
2023-03-05T20:29:09.176Z,100778.00
2023-03-05T20:31:37.981Z,100789.00
2023-03-05T20:34:13.098Z,100775.00
2023-03-05T20:36:40.739Z,100785.00
2023-03-05T20:39:08.944Z,100772.00
2023-03-05T20:41:39.302Z,100776.00
2023-03-05T20:44:07.614Z,100758.00
2023-03-05T20:46:42.057Z,100767.00
2023-03-05T20:49:11.823Z,100757.00
2023-03-05T20:51:42.060Z,100760.00
2023-03-05T20:54:13.315Z,100755.00
2023-03-05T20:56:42.595Z,100761.00
2023-03-05T20:59:11.066Z,100750.00
2023-03-05T21:01:42.875Z,100754.00
2023-03-05T21:04:10.135Z,100749.00
2023-03-05T21:06:38.356Z,100744.00
2023-03-05T21:09:05.856Z,100742.00
2023-03-05T21:11:35.611Z,100745.00
2023-03-05T21:14:02.862Z,100737.00
2023-03-05T21:16:30.263Z,100731.00
2023-03-05T21:18:57.734Z,100727.00
2023-03-05T21:21:25.762Z,100721.00
2023-03-05T21:23:53.617Z,100727.00
2023-03-05T21:26:21.336Z,100730.00
2023-03-05T21:28:48.985Z,100723.00
2023-03-05T21:31:24.258Z,100709.00
2023-03-05T21:33:51.799Z,100724.00
2023-03-05T21:36:20.209Z,100711.00
2023-03-05T21:38:50.762Z,100709.00
2023-03-05T21:41:20.607Z,100710.00
2023-03-05T21:43:48.247Z,100707.00
2023-03-05T21:46:15.501Z,100695.00
2023-03-05T21:48:43.104Z,100698.00
2023-03-05T21:51:13.047Z,100694.00
2023-03-05T21:53:40.888Z,100685.00
2023-03-05T21:56:22.759Z,100693.00
2023-03-05T21:58:50.735Z,100688.00
2023-03-05T22:01:21.352Z,100693.00
2023-03-05T22:03:50.204Z,100687.00
2023-03-05T22:06:20.040Z,100672.00
2023-03-05T22:08:48.107Z,100673.00
2023-03-05T22:11:19.172Z,100663.00
2023-03-05T22:13:46.586Z,100662.00
2023-03-05T22:16:25.831Z,100667.00
2023-03-05T22:18:53.955Z,100666.00
2023-03-05T22:21:26.664Z,100668.00
2023-03-05T22:23:58.474Z,100660.00
2023-03-05T22:26:35.704Z,100663.00
2023-03-05T22:29:03.484Z,100650.00
2023-03-05T22:31:31.253Z,100646.00
2023-03-05T22:33:58.630Z,100642.00
2023-03-05T22:36:25.985Z,100653.00
2023-03-05T22:38:53.288Z,100645.00
2023-03-05T22:41:24.561Z,100639.00
2023-03-05T22:43:52.830Z,100642.00
2023-03-05T22:46:24.521Z,100635.00
2023-03-05T22:48:52.868Z,100632.00
2023-03-05T22:51:21.279Z,100617.00
2023-03-05T22:53:48.546Z,100627.00
2023-03-05T22:56:19.746Z,100626.00
2023-03-05T22:58:50.540Z,100613.00
2023-03-05T23:01:25.947Z,100621.00
2023-03-05T23:03:58.946Z,100615.00
2023-03-05T23:06:26.535Z,100609.00
2023-03-05T23:08:53.762Z,100612.00
2023-03-05T23:11:21.302Z,100607.00
2023-03-05T23:13:48.707Z,100611.00
2023-03-05T23:16:16.109Z,100610.00
2023-03-05T23:18:43.402Z,100594.00
2023-03-05T23:21:10.603Z,100594.00
2023-03-05T23:23:37.800Z,100592.00
2023-03-05T23:26:05.085Z,100590.00
2023-03-05T23:28:32.693Z,100591.00
2023-03-05T23:31:00.041Z,100592.00
2023-03-05T23:33:27.421Z,100574.00
2023-03-05T23:36:00.503Z,100587.00
2023-03-05T23:38:30.728Z,100582.00
2023-03-05T23:41:01.386Z,100582.00
2023-03-05T23:43:29.751Z,100583.00
2023-03-05T23:45:57.714Z,100593.00
2023-03-05T23:48:27.466Z,100587.00
2023-03-05T23:50:55.967Z,100574.00
2023-03-05T23:53:28.413Z,100574.00
2023-03-05T23:55:56.488Z,100562.00
2023-03-05T23:58:24.786Z,100568.00
